Sanaa, Yemen
Current Conditions -  °F | °C
As of 9:00 PM on Thursday 30 Oct 2014 (Local Time) from OYSN Reporting Station
Few Clouds Few Clouds  
Wind Chill: 63°   Ceiling: Unl
Heat Index: 63°   Visibility: 6mi
Dew Point: 25°   Wind: 5mph
Humidity: 24%   Direction: 120°ESE
Pressure: 30.3"   Gusts: NA
Location:  15.35°N, 44.21°E
Report Text: OYSN 301800Z 12004KT 070V140 9999 FEW030 17/M04 Q1026 NOSIG
Loading
Personal Weather Stations






























Interactive Weather Map
Tropical Storm Tracking
New forecast layout! Learn more

10-Day Weather Forecast

Advertisements
Track Severe Weather on mobile